createdAt,value
2018-05-13T00:01:14.450Z,77.00
2018-05-13T00:03:40.432Z,77.01
2018-05-13T00:06:06.427Z,77.61
2018-05-13T00:08:32.520Z,77.09
2018-05-13T00:10:58.440Z,75.77
2018-05-13T00:13:24.373Z,77.05
2018-05-13T00:15:50.376Z,77.14
2018-05-13T00:18:16.366Z,77.02
2018-05-13T00:20:42.311Z,75.92
2018-05-13T00:23:08.283Z,76.62
2018-05-13T00:25:34.309Z,76.37
2018-05-13T00:28:00.294Z,77.00
2018-05-13T00:30:26.556Z,76.60
2018-05-13T00:32:52.505Z,77.04
2018-05-13T00:35:18.474Z,77.69
2018-05-13T00:37:44.482Z,78.06
2018-05-13T00:40:10.471Z,77.29
2018-05-13T00:42:36.471Z,76.70
2018-05-13T00:45:02.461Z,76.46
2018-05-13T00:47:28.455Z,76.06
2018-05-13T00:49:54.452Z,75.63
2018-05-13T00:52:20.429Z,75.58
2018-05-13T00:54:53.656Z,75.50
2018-05-13T00:57:19.841Z,75.49
2018-05-13T00:59:45.998Z,75.67
2018-05-13T01:02:12.085Z,75.57
2018-05-13T01:04:38.467Z,75.43
2018-05-13T01:07:04.404Z,76.21
2018-05-13T01:09:30.448Z,76.50
2018-05-13T01:11:56.437Z,76.36
2018-05-13T01:14:22.454Z,76.62
2018-05-13T01:16:48.455Z,76.46
2018-05-13T01:19:14.392Z,76.54
2018-05-13T01:21:40.436Z,78.26
2018-05-13T01:24:06.586Z,79.70
2018-05-13T01:26:32.563Z,81.76
2018-05-13T01:28:58.502Z,81.94
2018-05-13T01:31:24.497Z,82.27
2018-05-13T01:33:50.578Z,82.11
2018-05-13T01:36:16.587Z,82.65
2018-05-13T01:38:42.559Z,81.74
2018-05-13T01:41:08.524Z,81.08
2018-05-13T01:43:34.489Z,78.90
2018-05-13T01:46:00.493Z,80.05
2018-05-13T01:48:26.509Z,79.53
2018-05-13T01:50:52.413Z,77.54
2018-05-13T01:53:18.363Z,77.48
2018-05-13T01:55:44.393Z,77.69
2018-05-13T01:58:10.406Z,77.92
2018-05-13T02:00:36.389Z,77.87
2018-05-13T02:03:02.376Z,77.33
2018-05-13T02:05:28.366Z,77.53
2018-05-13T02:07:54.301Z,77.36
2018-05-13T02:10:20.338Z,77.51
2018-05-13T02:12:46.313Z,77.73
2018-05-13T02:15:12.348Z,77.81
2018-05-13T02:17:38.330Z,77.69
2018-05-13T02:20:04.299Z,77.20
2018-05-13T02:22:30.326Z,77.16
2018-05-13T02:24:56.293Z,76.64
2018-05-13T02:27:22.286Z,77.00
2018-05-13T02:29:48.229Z,76.70
2018-05-13T02:32:14.256Z,76.57
2018-05-13T02:34:40.275Z,77.11
2018-05-13T02:37:06.406Z,76.96
2018-05-13T02:39:32.428Z,76.94
2018-05-13T02:41:58.394Z,77.11
2018-05-13T02:44:24.338Z,76.66
2018-05-13T02:46:50.444Z,76.22
2018-05-13T02:49:16.547Z,76.60
2018-05-13T02:51:42.506Z,76.17
2018-05-13T02:54:08.465Z,76.03
2018-05-13T02:56:34.437Z,76.89
2018-05-13T02:59:00.415Z,77.18
2018-05-13T03:01:26.396Z,77.21
2018-05-13T03:03:52.308Z,76.33
2018-05-13T03:06:18.290Z,76.22
2018-05-13T03:08:44.340Z,76.27
2018-05-13T03:11:10.393Z,76.99
2018-05-13T03:13:36.419Z,77.00
2018-05-13T03:16:02.438Z,77.18
2018-05-13T03:18:28.357Z,77.00
2018-05-13T03:20:54.350Z,76.35
2018-05-13T03:23:20.363Z,76.41
2018-05-13T03:25:46.332Z,76.95
2018-05-13T03:28:12.378Z,76.54
2018-05-13T03:30:38.330Z,76.38
2018-05-13T03:33:04.266Z,76.45
2018-05-13T03:35:30.296Z,77.41
2018-05-13T03:37:56.238Z,78.56
2018-05-13T03:40:22.377Z,78.00
2018-05-13T03:42:48.347Z,78.75
2018-05-13T03:45:14.307Z,78.71
2018-05-13T03:47:40.289Z,77.76
2018-05-13T03:50:06.363Z,78.09
2018-05-13T03:52:32.433Z,77.93
2018-05-13T03:54:58.389Z,77.72
2018-05-13T03:57:24.486Z,77.46
2018-05-13T04:02:33.570Z,77.59
2018-05-13T04:04:59.547Z,77.52
2018-05-13T04:07:25.494Z,77.75
2018-05-13T04:10:03.857Z,78.30
2018-05-13T04:12:42.064Z,78.52
2018-05-13T04:15:25.949Z,78.94
2018-05-13T04:17:51.937Z,78.82
2018-05-13T04:20:17.932Z,78.82
2018-05-13T04:22:43.943Z,78.96
2018-05-13T04:25:09.973Z,78.33
2018-05-13T04:27:35.946Z,78.58
2018-05-13T04:30:01.945Z,77.71
2018-05-13T04:32:27.908Z,78.01
2018-05-13T04:34:53.887Z,78.10
2018-05-13T04:37:19.845Z,77.31
2018-05-13T04:39:45.873Z,76.55
2018-05-13T04:42:11.862Z,77.58
2018-05-13T04:44:37.884Z,76.85
2018-05-13T04:47:03.861Z,76.67
2018-05-13T04:49:29.845Z,76.87
2018-05-13T04:51:55.790Z,77.12
2018-05-13T04:54:21.797Z,77.21
2018-05-13T04:56:47.838Z,76.73
2018-05-13T04:59:13.801Z,76.65
2018-05-13T05:01:39.782Z,76.96
2018-05-13T05:04:05.938Z,76.01
2018-05-13T05:06:32.006Z,76.49
2018-05-13T05:08:58.167Z,76.32
2018-05-13T05:11:24.100Z,75.82
2018-05-13T05:13:50.067Z,77.33
2018-05-13T05:16:16.024Z,76.70
2018-05-13T05:18:41.988Z,77.57
2018-05-13T05:21:08.001Z,76.32
2018-05-13T05:23:33.928Z,76.39
2018-05-13T05:25:59.912Z,76.31
2018-05-13T05:28:25.932Z,75.97
2018-05-13T05:30:52.061Z,76.41
2018-05-13T05:33:17.988Z,76.16
2018-05-13T05:35:43.977Z,75.81
2018-05-13T05:38:09.904Z,76.05
2018-05-13T05:40:36.025Z,76.09
2018-05-13T05:43:01.971Z,76.01
2018-05-13T05:45:28.003Z,74.54
2018-05-13T05:47:53.968Z,75.05
2018-05-13T05:50:20.005Z,74.50
2018-05-13T05:52:46.026Z,74.65
2018-05-13T05:55:11.997Z,74.33
2018-05-13T05:57:37.970Z,75.18
2018-05-13T06:00:04.011Z,75.65
2018-05-13T06:02:30.030Z,75.48
2018-05-13T06:04:56.008Z,74.62
2018-05-13T06:07:22.098Z,74.31
2018-05-13T06:09:48.100Z,74.59
2018-05-13T06:12:14.136Z,74.28
2018-05-13T06:14:40.575Z,73.79
2018-05-13T06:17:06.581Z,72.99
2018-05-13T06:19:32.565Z,70.92
2018-05-13T06:21:58.541Z,71.22
2018-05-13T06:24:24.510Z,71.34
2018-05-13T06:26:50.764Z,71.67
2018-05-13T06:29:16.730Z,71.58
2018-05-13T06:31:42.803Z,71.44
2018-05-13T06:34:08.777Z,73.25
2018-05-13T06:36:35.678Z,72.85
2018-05-13T06:39:01.639Z,72.98
2018-05-13T06:41:27.693Z,72.70
2018-05-13T06:43:53.643Z,72.39
2018-05-13T06:46:19.606Z,72.21
2018-05-13T06:48:45.545Z,72.80
2018-05-13T06:51:11.527Z,73.95
2018-05-13T06:53:37.584Z,73.76
2018-05-13T06:56:03.583Z,72.88
2018-05-13T06:58:29.566Z,73.21
2018-05-13T07:00:55.562Z,71.45
2018-05-13T07:03:21.476Z,72.66
2018-05-13T07:05:47.466Z,74.49
2018-05-13T07:08:13.482Z,73.78
2018-05-13T07:10:39.425Z,73.42
2018-05-13T07:13:05.414Z,73.61
2018-05-13T07:15:31.463Z,74.29
2018-05-13T07:17:57.475Z,72.54
2018-05-13T07:20:23.444Z,73.21
2018-05-13T07:22:49.487Z,73.84
2018-05-13T07:25:15.838Z,73.12
2018-05-13T07:27:41.837Z,73.20
2018-05-13T07:30:07.816Z,73.83
2018-05-13T07:32:33.883Z,74.04
2018-05-13T07:34:59.880Z,73.43
2018-05-13T07:37:25.850Z,73.34
2018-05-13T07:39:51.818Z,74.06
2018-05-13T07:42:17.838Z,74.37
2018-05-13T07:44:43.792Z,73.71
2018-05-13T07:47:09.811Z,73.51
2018-05-13T07:49:35.821Z,74.62
2018-05-13T07:52:01.827Z,75.22
2018-05-13T07:54:27.805Z,76.30
2018-05-13T07:56:53.775Z,76.40
2018-05-13T07:59:19.742Z,75.12
2018-05-13T08:01:45.743Z,75.54
2018-05-13T08:04:11.735Z,75.80
2018-05-13T08:06:38.012Z,75.48
2018-05-13T08:09:04.851Z,75.89
2018-05-13T08:11:30.803Z,76.83
2018-05-13T08:13:56.895Z,77.55
2018-05-13T08:16:22.870Z,79.30
2018-05-13T08:18:48.850Z,80.10
2018-05-13T08:21:15.659Z,80.98
2018-05-13T08:23:41.715Z,80.90
2018-05-13T08:26:07.770Z,81.46
2018-05-13T08:28:33.784Z,82.24
2018-05-13T08:30:59.792Z,81.29
2018-05-13T08:33:25.833Z,81.02
2018-05-13T08:35:51.889Z,81.37
2018-05-13T08:38:17.877Z,80.87
2018-05-13T08:40:43.842Z,80.17
2018-05-13T08:43:09.857Z,80.00
2018-05-13T08:45:35.782Z,78.63
2018-05-13T08:48:01.843Z,78.82
2018-05-13T08:50:27.876Z,79.03
2018-05-13T08:52:53.866Z,77.70
2018-05-13T08:55:19.807Z,77.89
2018-05-13T08:57:45.812Z,76.77
2018-05-13T09:00:11.738Z,77.19
2018-05-13T09:02:37.721Z,77.12
2018-05-13T09:05:03.739Z,76.50
2018-05-13T09:07:29.763Z,77.39
2018-05-13T09:09:55.779Z,77.17
2018-05-13T09:12:21.780Z,76.79
2018-05-13T09:14:49.857Z,77.83
2018-05-13T09:17:15.845Z,77.80
2018-05-13T09:19:41.840Z,77.46
2018-05-13T09:22:07.798Z,78.45
2018-05-13T09:24:33.932Z,75.56
2018-05-13T09:27:00.033Z,76.95
2018-05-13T09:29:26.008Z,74.95
2018-05-13T09:31:51.977Z,74.74
2018-05-13T09:34:17.970Z,74.99
2018-05-13T09:36:43.922Z,74.62
2018-05-13T09:39:09.884Z,73.90
2018-05-13T09:41:35.895Z,73.02
2018-05-13T09:44:01.865Z,70.97
2018-05-13T09:46:27.921Z,70.98
2018-05-13T09:48:54.284Z,70.29
2018-05-13T09:51:20.247Z,70.91
2018-05-13T09:53:46.222Z,70.93
2018-05-13T09:56:12.231Z,71.86
2018-05-13T09:58:38.214Z,72.14
2018-05-13T10:01:04.204Z,72.78
2018-05-13T10:03:30.283Z,72.68
2018-05-13T10:05:56.333Z,71.81
2018-05-13T10:08:22.291Z,72.32
2018-05-13T10:10:48.212Z,72.91
2018-05-13T10:13:14.208Z,73.06
2018-05-13T10:15:40.159Z,72.24
2018-05-13T10:18:08.213Z,72.48
2018-05-13T10:20:34.206Z,74.08
2018-05-13T10:23:00.229Z,74.33
2018-05-13T10:25:26.251Z,74.43
2018-05-13T10:27:52.268Z,74.33
2018-05-13T10:30:18.222Z,74.74
2018-05-13T10:32:57.342Z,74.66
2018-05-13T10:35:23.608Z,75.59
2018-05-13T10:37:49.576Z,75.16
2018-05-13T10:40:15.575Z,75.70
2018-05-13T10:42:41.549Z,75.88
2018-05-13T10:45:07.489Z,76.46
2018-05-13T10:47:33.466Z,75.42
2018-05-13T10:49:59.489Z,74.82
2018-05-13T10:52:25.538Z,76.35
2018-05-13T10:54:51.576Z,74.68
2018-05-13T10:57:17.561Z,72.50
2018-05-13T10:59:43.549Z,73.25
2018-05-13T11:02:09.565Z,73.64
2018-05-13T11:04:35.516Z,75.34
2018-05-13T11:07:01.536Z,73.94
2018-05-13T11:09:27.544Z,74.16
2018-05-13T11:11:53.505Z,73.92
2018-05-13T11:14:19.493Z,74.46
2018-05-13T11:16:45.683Z,73.90
2018-05-13T11:19:11.724Z,74.33
2018-05-13T11:21:37.687Z,74.39
2018-05-13T11:24:03.622Z,74.45
2018-05-13T11:26:29.585Z,74.61
2018-05-13T11:28:56.279Z,75.65
2018-05-13T11:31:22.349Z,74.64
2018-05-13T11:33:48.421Z,74.59
2018-05-13T11:36:14.553Z,74.23
2018-05-13T11:38:40.461Z,74.34
2018-05-13T11:41:06.797Z,74.37
2018-05-13T11:43:32.873Z,74.00
2018-05-13T11:46:00.207Z,73.83
2018-05-13T11:48:26.257Z,74.46
2018-05-13T11:50:52.197Z,74.17
2018-05-13T11:53:18.122Z,72.96
2018-05-13T11:55:44.147Z,74.28
2018-05-13T11:58:10.169Z,74.43
2018-05-13T12:00:36.195Z,74.59
2018-05-13T12:03:02.297Z,74.72
2018-05-13T12:05:28.252Z,75.58
2018-05-13T12:07:54.206Z,75.09
2018-05-13T12:10:20.297Z,74.11
2018-05-13T12:12:46.249Z,74.65
2018-05-13T12:15:12.300Z,75.49
2018-05-13T12:17:38.313Z,75.94
2018-05-13T12:20:05.435Z,74.95
2018-05-13T12:22:31.494Z,75.42
2018-05-13T12:24:57.539Z,75.49
2018-05-13T12:27:23.525Z,75.19
2018-05-13T12:29:49.644Z,75.71
2018-05-13T12:32:15.592Z,75.92
2018-05-13T12:34:41.565Z,75.69
2018-05-13T12:37:07.552Z,76.23
2018-05-13T12:39:33.497Z,74.34
2018-05-13T12:41:59.472Z,74.37
2018-05-13T12:44:25.472Z,73.91
2018-05-13T12:46:51.856Z,74.89
2018-05-13T12:49:17.875Z,74.28
2018-05-13T12:51:43.810Z,74.53
2018-05-13T12:54:09.777Z,74.75
2018-05-13T12:56:35.809Z,75.76
2018-05-13T12:59:01.845Z,76.16
2018-05-13T13:01:27.846Z,75.68
2018-05-13T13:03:54.006Z,76.34
2018-05-13T13:06:20.253Z,76.05
2018-05-13T13:08:46.557Z,77.02
2018-05-13T13:11:12.553Z,77.46
2018-05-13T13:13:38.566Z,76.72
2018-05-13T13:16:04.593Z,76.96
2018-05-13T13:18:30.606Z,76.78
2018-05-13T13:20:56.651Z,76.95
2018-05-13T13:23:22.604Z,78.08
2018-05-13T13:25:48.578Z,77.24
2018-05-13T13:28:14.551Z,76.99
2018-05-13T13:30:40.613Z,76.53
2018-05-13T13:33:06.586Z,77.27
2018-05-13T13:35:32.574Z,77.27
2018-05-13T13:37:58.580Z,76.20
2018-05-13T13:40:24.647Z,75.11
2018-05-13T13:42:50.671Z,74.86
2018-05-13T13:45:16.617Z,75.55
2018-05-13T13:47:42.568Z,76.30
2018-05-13T13:50:08.563Z,75.85
2018-05-13T13:52:34.564Z,76.00
2018-05-13T13:55:00.518Z,74.74
2018-05-13T13:57:26.492Z,75.05
2018-05-13T14:08:30.497Z,72.66
2018-05-13T14:10:56.421Z,71.60
2018-05-13T14:13:22.310Z,71.79
2018-05-13T14:18:41.582Z,71.51
2018-05-13T14:21:07.479Z,70.85
2018-05-13T14:23:33.399Z,70.82
2018-05-13T14:25:59.295Z,72.20
2018-05-13T14:28:25.201Z,71.81
2018-05-13T14:30:54.970Z,71.08
2018-05-13T14:33:20.913Z,69.86
2018-05-13T14:35:46.828Z,69.97
2018-05-13T14:38:12.723Z,69.77
2018-05-13T14:40:38.648Z,69.65
2018-05-13T14:43:05.561Z,70.21
2018-05-13T14:45:31.512Z,70.94
2018-05-13T14:48:00.547Z,70.51
2018-05-13T14:50:26.433Z,71.24
2018-05-13T14:52:55.392Z,70.98
2018-05-13T14:55:21.334Z,71.28
2018-05-13T14:57:50.724Z,71.72
2018-05-13T15:00:16.588Z,72.52
2018-05-13T15:02:44.089Z,72.30
2018-05-13T15:05:10.139Z,72.58
2018-05-13T15:07:39.505Z,73.09
2018-05-13T15:10:05.431Z,72.71
2018-05-13T15:12:31.288Z,71.84
2018-05-13T15:14:57.190Z,72.72
2018-05-13T15:17:23.090Z,72.82
2018-05-13T15:19:50.908Z,73.49
2018-05-13T15:22:16.954Z,72.93
2018-05-13T15:24:46.927Z,72.74
2018-05-13T15:27:12.847Z,72.84
2018-05-13T15:29:40.028Z,72.37
2018-05-13T15:45:18.281Z,72.59
2018-05-13T15:47:44.159Z,73.80
2018-05-13T15:50:10.067Z,73.09
2018-05-13T15:52:35.993Z,73.37
2018-05-13T15:55:02.142Z,72.75
2018-05-13T15:57:27.955Z,72.83
2018-05-13T15:59:53.903Z,73.08
2018-05-13T16:02:19.798Z,73.22
2018-05-13T16:04:45.725Z,73.75
2018-05-13T16:07:11.648Z,73.83
2018-05-13T16:09:37.635Z,74.84
2018-05-13T16:12:03.675Z,73.91
2018-05-13T16:14:29.503Z,73.69
2018-05-13T16:16:55.403Z,73.75
2018-05-13T16:19:21.298Z,73.63
2018-05-13T16:21:47.225Z,74.45
2018-05-13T16:24:13.095Z,74.40
2018-05-13T16:26:39.009Z,74.15
2018-05-13T16:29:04.952Z,74.67
2018-05-13T16:31:30.888Z,74.43
2018-05-13T16:33:56.831Z,75.02
2018-05-13T16:36:22.949Z,74.90
2018-05-13T16:38:48.848Z,74.12
2018-05-13T16:41:14.767Z,74.10
2018-05-13T16:43:40.663Z,74.83
2018-05-13T16:46:06.598Z,74.95
2018-05-13T16:48:32.507Z,75.37
2018-05-13T16:50:58.438Z,76.20
2018-05-13T16:53:24.372Z,76.36
2018-05-13T16:55:50.281Z,76.41
2018-05-13T16:58:16.223Z,77.12
2018-05-13T17:00:42.114Z,76.97
2018-05-13T17:03:07.998Z,77.02
2018-05-13T17:05:33.891Z,77.20
2018-05-13T17:07:59.798Z,76.16
2018-05-13T17:10:25.711Z,76.03
2018-05-13T17:12:51.624Z,76.89
2018-05-13T17:15:17.605Z,77.34
2018-05-13T17:17:43.531Z,76.70
2018-05-13T17:20:09.467Z,77.19
2018-05-13T17:22:35.357Z,77.09
2018-05-13T17:25:01.287Z,76.55
2018-05-13T17:27:27.214Z,76.97
2018-05-13T17:29:53.225Z,77.31
2018-05-13T17:32:19.120Z,77.47
2018-05-13T17:34:45.025Z,77.18
2018-05-13T17:37:10.905Z,77.44
2018-05-13T17:39:36.832Z,77.70
2018-05-13T17:42:02.729Z,77.68
2018-05-13T17:44:28.690Z,77.73
2018-05-13T17:46:54.590Z,77.67
2018-05-13T17:49:20.504Z,77.84
2018-05-13T17:51:46.439Z,78.53
2018-05-13T17:54:12.359Z,78.36
2018-05-13T17:56:41.447Z,78.31
2018-05-13T17:59:07.364Z,78.14
2018-05-13T18:01:36.526Z,78.58
2018-05-13T18:04:02.456Z,78.16
2018-05-13T18:06:31.404Z,79.05
2018-05-13T18:08:57.351Z,79.27
2018-05-13T18:11:25.288Z,79.42
2018-05-13T18:13:51.206Z,80.15
2018-05-13T18:16:17.124Z,81.30
2018-05-13T18:18:43.016Z,81.04
2018-05-13T18:21:08.952Z,81.16
2018-05-13T18:23:36.778Z,80.26
2018-05-13T18:26:02.700Z,81.22
2018-05-13T18:28:31.609Z,81.68
2018-05-13T18:30:57.506Z,80.82
2018-05-13T18:33:26.449Z,80.53
2018-05-13T18:35:52.367Z,80.90
2018-05-13T18:38:22.028Z,81.80
2018-05-13T18:40:47.931Z,82.83
2018-05-13T18:43:17.551Z,82.33
2018-05-13T18:45:43.432Z,82.74
2018-05-13T18:48:10.548Z,82.76
2018-05-13T18:50:36.486Z,82.62
2018-05-13T18:53:02.368Z,82.84
2018-05-13T18:55:28.298Z,82.57
2018-05-13T18:57:54.208Z,82.78
2018-05-13T19:00:23.278Z,82.94
2018-05-13T19:02:49.214Z,82.62
2018-05-13T19:05:18.729Z,83.06
2018-05-13T19:07:44.680Z,83.27
2018-05-13T19:10:12.048Z,83.99
2018-05-13T19:12:37.976Z,83.96
2018-05-13T19:15:06.840Z,84.17
2018-05-13T19:17:32.777Z,84.62
2018-05-13T19:20:02.103Z,85.18
2018-05-13T19:22:28.019Z,85.05
2018-05-13T19:24:57.348Z,85.26
2018-05-13T19:27:23.302Z,86.23
2018-05-13T19:29:49.233Z,86.38
2018-05-13T19:32:15.205Z,85.74
2018-05-13T19:34:41.127Z,86.06
2018-05-13T19:37:08.134Z,86.33
2018-05-13T19:39:34.100Z,86.10
2018-05-13T19:42:03.483Z,87.11
2018-05-13T19:44:29.440Z,88.26
2018-05-13T19:46:58.645Z,87.59
2018-05-13T19:49:24.542Z,87.15
2018-05-13T19:51:52.012Z,88.05
2018-05-13T19:54:18.047Z,88.49
2018-05-13T19:56:47.456Z,88.11
2018-05-13T19:59:13.443Z,88.40
2018-05-13T20:01:41.169Z,88.09
2018-05-13T20:04:07.078Z,88.19
2018-05-13T20:06:33.064Z,87.89
2018-05-13T20:08:59.045Z,88.06
2018-05-13T20:11:24.964Z,87.51
2018-05-13T20:13:54.050Z,87.92
2018-05-13T20:16:19.973Z,89.47
2018-05-13T20:18:49.562Z,87.45
2018-05-13T20:21:15.473Z,87.74
2018-05-13T20:23:42.412Z,89.24
2018-05-13T20:26:08.437Z,88.33
2018-05-13T20:28:37.848Z,89.45
2018-05-13T20:31:03.789Z,88.00
2018-05-13T20:33:33.607Z,88.92
2018-05-13T20:35:59.619Z,88.72
2018-05-13T20:38:27.009Z,90.13
2018-05-13T20:40:52.904Z,89.76
2018-05-13T20:43:18.848Z,90.03
2018-05-13T20:45:44.795Z,88.35
2018-05-13T20:48:10.752Z,89.64
2018-05-13T20:50:39.786Z,89.77
2018-05-13T20:53:05.752Z,89.77
2018-05-13T20:55:32.835Z,88.84
2018-05-13T20:57:58.805Z,89.55
2018-05-13T21:00:29.409Z,88.10
2018-05-13T21:02:55.355Z,87.65
2018-05-13T21:05:22.380Z,88.51
2018-05-13T21:07:48.284Z,89.30
2018-05-13T21:10:17.270Z,89.17
2018-05-13T21:12:43.165Z,89.20
2018-05-13T21:15:12.478Z,89.22
2018-05-13T21:17:38.454Z,89.51
2018-05-13T21:20:04.390Z,90.37
2018-05-13T21:22:30.311Z,90.00
2018-05-13T21:38:14.742Z,89.69
2018-05-13T21:40:40.684Z,89.93
2018-05-13T21:43:06.627Z,88.58
2018-05-13T21:45:32.567Z,88.36
2018-05-13T21:47:58.505Z,88.90
2018-05-13T21:50:24.464Z,88.64
2018-05-13T21:52:50.393Z,88.75
2018-05-13T21:55:16.267Z,88.65
2018-05-13T21:57:42.243Z,88.18
2018-05-13T22:00:08.203Z,89.36
2018-05-13T22:02:34.124Z,89.42
2018-05-13T22:05:00.136Z,89.06
2018-05-13T22:07:26.052Z,88.56
2018-05-13T22:09:52.027Z,87.64
2018-05-13T22:12:17.949Z,87.37
2018-05-13T22:14:44.912Z,87.50
2018-05-13T22:17:10.871Z,86.00
2018-05-13T22:19:36.789Z,86.41
2018-05-13T22:22:02.746Z,87.05
2018-05-13T22:24:28.702Z,87.34
2018-05-13T22:26:54.604Z,88.22
2018-05-13T22:29:20.561Z,88.53
2018-05-13T22:31:46.538Z,87.67
2018-05-13T22:34:12.489Z,88.03
2018-05-13T22:36:38.438Z,88.75
2018-05-13T22:39:04.361Z,88.43
2018-05-13T22:41:30.281Z,87.17
2018-05-13T22:43:57.254Z,86.63
2018-05-13T22:46:23.206Z,86.12
2018-05-13T22:48:49.123Z,86.02
2018-05-13T22:51:15.067Z,87.55
2018-05-13T22:53:40.983Z,87.56
2018-05-13T22:56:06.930Z,87.73
2018-05-13T22:58:32.842Z,87.47
2018-05-13T23:00:58.808Z,87.31
2018-05-13T23:03:24.704Z,87.47
2018-05-13T23:05:50.641Z,86.55
2018-05-13T23:08:16.579Z,87.32
2018-05-13T23:10:42.495Z,87.25
2018-05-13T23:13:08.457Z,87.50
2018-05-13T23:15:34.381Z,88.74
2018-05-13T23:20:51.546Z,89.36
2018-05-13T23:23:17.958Z,88.98
2018-05-13T23:25:44.467Z,88.35
2018-05-13T23:28:11.025Z,89.35
2018-05-13T23:30:37.470Z,90.56
2018-05-13T23:33:03.951Z,90.14
2018-05-13T23:35:30.292Z,90.45
2018-05-13T23:37:56.746Z,90.21
2018-05-13T23:40:23.191Z,89.38
2018-05-13T23:42:49.867Z,89.05
2018-05-13T23:45:16.381Z,89.35
2018-05-13T23:47:42.824Z,89.49
2018-05-13T23:50:09.223Z,89.14
2018-05-13T23:52:35.778Z,89.03
2018-05-13T23:55:02.167Z,88.57
2018-05-13T23:57:28.143Z,87.87
2018-05-13T23:59:54.048Z,87.92
